createdAt,value
2023-05-01T00:00:13.371Z,7.05
2023-05-01T00:01:14.385Z,7.08
2023-05-01T00:02:13.460Z,7.14
2023-05-01T00:03:13.550Z,6.97
2023-05-01T00:04:13.583Z,7.14
2023-05-01T00:05:13.414Z,7.24
2023-05-01T00:06:13.417Z,7.27
2023-05-01T00:07:13.381Z,7.32
2023-05-01T00:08:13.345Z,7.11
2023-05-01T00:09:13.345Z,7.29
2023-05-01T00:10:13.329Z,7.12
2023-05-01T00:11:13.333Z,7.24
2023-05-01T00:12:13.348Z,7.47
2023-05-01T00:13:13.329Z,7.54
2023-05-01T00:14:13.322Z,7.24
2023-05-01T00:15:14.027Z,7.15
2023-05-01T00:16:13.468Z,7.27
2023-05-01T00:17:13.313Z,7.39
2023-05-01T00:18:13.376Z,7.30
2023-05-01T00:19:13.762Z,7.41
2023-05-01T00:20:13.303Z,7.45
2023-05-01T00:21:13.269Z,7.58
2023-05-01T00:22:13.308Z,7.55
2023-05-01T00:23:13.292Z,7.39
2023-05-01T00:24:13.253Z,7.42
2023-05-01T00:25:13.272Z,7.51
2023-05-01T00:26:13.322Z,7.62
2023-05-01T00:27:13.254Z,7.71
2023-05-01T00:28:13.245Z,7.86
2023-05-01T00:29:13.285Z,7.89
2023-05-01T00:30:13.250Z,7.94
2023-05-01T00:31:13.264Z,8.09
2023-05-01T00:32:13.252Z,7.96
2023-05-01T00:33:13.228Z,7.84
2023-05-01T00:34:13.263Z,7.69
2023-05-01T00:35:13.231Z,7.42
2023-05-01T00:36:13.240Z,7.44
2023-05-01T00:37:13.261Z,7.45
2023-05-01T00:38:13.220Z,7.63
2023-05-01T00:39:13.229Z,7.77
2023-05-01T00:40:13.204Z,7.92
2023-05-01T00:41:13.228Z,8.03
2023-05-01T00:42:13.235Z,8.04
2023-05-01T00:43:13.171Z,8.20
2023-05-01T00:44:13.193Z,8.17
2023-05-01T00:45:13.176Z,8.28
2023-05-01T00:46:13.197Z,8.40
2023-05-01T00:47:13.225Z,8.42
2023-05-01T00:48:13.266Z,8.55
2023-05-01T00:49:13.249Z,8.54
2023-05-01T00:50:13.195Z,8.64
2023-05-01T00:51:13.166Z,8.54
2023-05-01T00:52:13.148Z,8.52
2023-05-01T00:53:13.155Z,8.52
2023-05-01T00:54:13.171Z,8.52
2023-05-01T00:55:13.164Z,8.52
2023-05-01T00:56:13.191Z,8.50
2023-05-01T00:57:13.126Z,8.54
2023-05-01T00:58:13.153Z,8.63
2023-05-01T00:59:13.120Z,8.49
2023-05-01T01:00:13.101Z,8.43
2023-05-01T01:01:13.159Z,8.46
2023-05-01T01:02:13.125Z,8.42
2023-05-01T01:03:13.108Z,8.31
2023-05-01T01:04:13.090Z,8.42
2023-05-01T01:05:13.078Z,8.31
2023-05-01T01:06:13.151Z,8.14
2023-05-01T01:07:13.128Z,8.22
2023-05-01T01:08:13.058Z,7.92
2023-05-01T01:09:13.079Z,7.57
2023-05-01T01:10:13.054Z,7.36
2023-05-01T01:11:13.055Z,7.15
2023-05-01T01:12:13.082Z,7.15
2023-05-01T01:13:13.037Z,7.32
2023-05-01T01:14:13.030Z,7.30
2023-05-01T01:15:13.070Z,7.11
2023-05-01T01:16:13.024Z,6.99
2023-05-01T01:17:13.231Z,6.94
2023-05-01T01:18:13.070Z,7.09
2023-05-01T01:19:13.002Z,7.00
2023-05-01T01:20:13.140Z,7.11
2023-05-01T01:21:13.017Z,7.19
2023-05-01T01:22:13.046Z,7.42
2023-05-01T01:23:13.008Z,7.54
2023-05-01T01:24:13.014Z,7.70
2023-05-01T01:25:13.025Z,7.76
2023-05-01T01:26:12.989Z,7.92
2023-05-01T01:27:12.991Z,7.76
2023-05-01T01:28:13.072Z,7.62
2023-05-01T01:29:13.008Z,7.24
2023-05-01T01:30:12.960Z,7.26
2023-05-01T01:31:13.052Z,7.37
2023-05-01T01:32:12.992Z,7.23
2023-05-01T01:33:12.956Z,7.16
2023-05-01T01:34:12.969Z,7.09
2023-05-01T01:35:12.940Z,6.97
2023-05-01T01:36:12.933Z,6.61
2023-05-01T01:37:12.975Z,6.75
2023-05-01T01:38:12.929Z,6.90
2023-05-01T01:39:12.926Z,6.69
2023-05-01T01:40:12.930Z,6.76
2023-05-01T01:41:12.908Z,6.68
2023-05-01T01:42:12.981Z,6.78
2023-05-01T01:43:12.908Z,6.87
2023-05-01T01:44:12.925Z,6.83
2023-05-01T01:45:12.944Z,6.83
2023-05-01T01:46:13.011Z,6.79
2023-05-01T01:47:12.895Z,6.78
2023-05-01T01:48:13.095Z,6.96
2023-05-01T01:49:12.951Z,6.87
2023-05-01T01:50:12.889Z,6.94
2023-05-01T01:51:12.945Z,6.89
2023-05-01T01:52:12.860Z,7.07
2023-05-01T01:53:12.875Z,7.07
2023-05-01T01:54:12.889Z,7.11
2023-05-01T01:55:12.918Z,7.24
2023-05-01T01:56:12.859Z,6.97
2023-05-01T01:57:12.830Z,6.96
2023-05-01T01:58:12.852Z,7.00
2023-05-01T01:59:12.836Z,7.09
2023-05-01T02:00:12.857Z,7.12
2023-05-01T02:01:12.843Z,6.96
2023-05-01T02:02:12.862Z,6.81
2023-05-01T02:03:12.975Z,7.01
2023-05-01T02:04:12.907Z,6.90
2023-05-01T02:05:12.856Z,6.54
2023-05-01T02:06:12.894Z,6.72
2023-05-01T02:07:12.780Z,6.76
2023-05-01T02:08:12.812Z,6.58
2023-05-01T02:09:12.785Z,6.48
2023-05-01T02:10:12.843Z,6.68
2023-05-01T02:11:12.810Z,6.63
2023-05-01T02:12:12.781Z,6.69
2023-05-01T02:13:12.775Z,6.91
2023-05-01T02:14:12.774Z,6.93
2023-05-01T02:15:12.759Z,6.82
2023-05-01T02:16:12.918Z,6.82
2023-05-01T02:17:12.772Z,6.81
2023-05-01T02:18:12.748Z,6.68
2023-05-01T02:19:12.877Z,6.48
2023-05-01T02:20:12.791Z,6.65
2023-05-01T02:21:12.746Z,6.58
2023-05-01T02:22:12.782Z,6.69
2023-05-01T02:23:12.754Z,6.87
2023-05-01T02:24:12.733Z,7.01
2023-05-01T02:25:12.768Z,7.12
2023-05-01T02:26:12.714Z,7.11
2023-05-01T02:27:12.736Z,7.00
2023-05-01T02:28:12.708Z,6.94
2023-05-01T02:29:12.737Z,6.81
2023-05-01T02:30:12.697Z,6.97
2023-05-01T02:31:12.817Z,6.93
2023-05-01T02:32:12.701Z,6.71
2023-05-01T02:33:12.682Z,6.46
2023-05-01T02:34:12.679Z,6.32
2023-05-01T02:35:12.716Z,6.55
2023-05-01T02:36:12.670Z,6.58
2023-05-01T02:37:12.688Z,6.28
2023-05-01T02:38:12.697Z,6.08
2023-05-01T02:39:12.658Z,6.10
2023-05-01T02:40:12.655Z,6.19
2023-05-01T02:41:12.660Z,6.38
2023-05-01T02:42:12.698Z,6.40
2023-05-01T02:43:12.668Z,6.55
2023-05-01T02:44:12.646Z,6.68
2023-05-01T02:45:12.629Z,6.81
2023-05-01T02:46:12.667Z,6.89
2023-05-01T02:47:12.659Z,6.82
2023-05-01T02:48:12.684Z,6.76
2023-05-01T02:49:12.617Z,6.79
2023-05-01T02:50:12.607Z,6.81
2023-05-01T02:51:12.620Z,7.00
2023-05-01T02:52:12.611Z,7.05
2023-05-01T02:53:12.678Z,7.05
2023-05-01T02:54:12.616Z,7.01
2023-05-01T02:55:12.619Z,7.08
2023-05-01T02:56:12.592Z,7.18
2023-05-01T02:57:12.571Z,7.26
2023-05-01T02:58:12.606Z,7.30
2023-05-01T02:59:12.532Z,7.34
2023-05-01T03:00:12.567Z,7.44
2023-05-01T03:01:12.641Z,7.11
2023-05-01T03:02:12.595Z,6.94
2023-05-01T03:03:12.566Z,7.07
2023-05-01T03:04:12.654Z,7.12
2023-05-01T03:05:12.555Z,7.26
2023-05-01T03:06:12.611Z,7.27
2023-05-01T03:07:12.524Z,7.24
2023-05-01T03:08:12.509Z,7.29
2023-05-01T03:09:13.751Z,7.37
2023-05-01T03:10:12.560Z,7.47
2023-05-01T03:11:12.534Z,7.44
2023-05-01T03:12:12.590Z,6.99
2023-05-01T03:13:12.508Z,6.97
2023-05-01T03:14:12.478Z,6.96
2023-05-01T03:15:12.522Z,7.07
2023-05-01T03:16:12.499Z,6.94
2023-05-01T03:17:12.477Z,6.93
2023-05-01T03:18:12.563Z,7.00
2023-05-01T03:19:12.464Z,6.93
2023-05-01T03:20:12.516Z,6.87
2023-05-01T03:21:12.462Z,6.89
2023-05-01T03:22:12.453Z,6.94
2023-05-01T03:23:12.439Z,6.94
2023-05-01T03:24:12.450Z,7.04
2023-05-01T03:25:12.465Z,6.82
2023-05-01T03:26:12.481Z,6.89
2023-05-01T03:27:12.414Z,6.91
2023-05-01T03:28:12.434Z,6.89
2023-05-01T03:29:12.416Z,6.86
2023-05-01T03:30:12.423Z,6.90
2023-05-01T03:31:12.405Z,6.99
2023-05-01T03:32:12.429Z,6.86
2023-05-01T03:33:13.450Z,6.69
2023-05-01T03:34:12.379Z,6.73
2023-05-01T03:35:12.373Z,6.73
2023-05-01T03:36:12.373Z,6.73
2023-05-01T03:37:12.379Z,6.71
2023-05-01T03:38:12.375Z,6.71
2023-05-01T03:39:12.364Z,6.78
2023-05-01T03:40:12.342Z,6.94
2023-05-01T03:41:12.357Z,6.79
2023-05-01T03:42:12.369Z,6.81
2023-05-01T03:43:12.370Z,6.87
2023-05-01T03:44:12.338Z,6.72
2023-05-01T03:45:12.418Z,6.78
2023-05-01T03:46:12.480Z,6.79
2023-05-01T03:47:12.345Z,6.90
2023-05-01T03:48:12.482Z,6.89
2023-05-01T03:49:12.298Z,6.94
2023-05-01T03:50:12.289Z,7.09
2023-05-01T03:51:12.296Z,7.08
2023-05-01T03:52:12.260Z,7.23
2023-05-01T03:53:12.323Z,7.34
2023-05-01T03:54:12.280Z,7.34
2023-05-01T03:55:12.302Z,7.36
2023-05-01T03:56:12.271Z,7.42
2023-05-01T03:57:12.299Z,7.39
2023-05-01T03:58:12.272Z,7.44
2023-05-01T03:59:12.248Z,7.51
2023-05-01T04:00:12.233Z,7.41
2023-05-01T04:01:12.241Z,7.29
2023-05-01T04:02:12.318Z,7.42
2023-05-01T04:03:12.445Z,7.36
2023-05-01T04:04:12.290Z,7.48
2023-05-01T04:05:12.208Z,7.48
2023-05-01T04:06:12.303Z,7.51
2023-05-01T04:07:12.208Z,7.66
2023-05-01T04:08:12.225Z,7.67
2023-05-01T04:09:12.214Z,7.51
2023-05-01T04:10:12.183Z,7.60
2023-05-01T04:11:12.220Z,7.55
2023-05-01T04:12:12.183Z,7.63
2023-05-01T04:13:12.198Z,7.62
2023-05-01T04:14:12.175Z,7.79
2023-05-01T04:15:13.256Z,7.79
2023-05-01T04:16:12.210Z,7.84
2023-05-01T04:17:12.165Z,7.79
2023-05-01T04:18:12.202Z,7.44
2023-05-01T04:19:13.319Z,7.11
2023-05-01T04:20:12.125Z,7.00
2023-05-01T04:21:12.163Z,7.07
2023-05-01T04:22:12.121Z,7.21
2023-05-01T04:23:12.151Z,7.26
2023-05-01T04:24:12.134Z,7.32
2023-05-01T04:25:12.097Z,7.37
2023-05-01T04:26:12.140Z,7.63
2023-05-01T04:27:12.085Z,7.52
2023-05-01T04:28:12.075Z,7.55
2023-05-01T04:29:12.079Z,7.45
2023-05-01T04:30:12.190Z,7.42
2023-05-01T04:31:12.179Z,7.58
2023-05-01T04:32:12.099Z,7.69
2023-05-01T04:33:12.078Z,7.85
2023-05-01T04:34:12.055Z,7.86
2023-05-01T04:35:12.097Z,7.89
2023-05-01T04:36:12.066Z,8.00
2023-05-01T04:37:12.068Z,8.04
2023-05-01T04:38:12.034Z,8.17
2023-05-01T04:39:12.008Z,7.84
2023-05-01T04:40:12.054Z,7.57
2023-05-01T04:41:12.044Z,7.58
2023-05-01T04:42:12.084Z,7.37
2023-05-01T04:43:12.033Z,7.24
2023-05-01T04:44:12.037Z,7.24
2023-05-01T04:45:12.011Z,7.45
2023-05-01T04:46:12.078Z,7.39
2023-05-01T04:47:12.068Z,7.27
2023-05-01T04:48:12.062Z,7.42
2023-05-01T04:49:11.978Z,7.50
2023-05-01T04:50:11.960Z,7.51
2023-05-01T04:51:11.998Z,7.44
2023-05-01T04:52:11.988Z,7.41
2023-05-01T04:53:11.966Z,7.50
2023-05-01T04:54:11.948Z,7.50
2023-05-01T04:55:11.939Z,7.45
2023-05-01T04:56:11.978Z,7.74
2023-05-01T04:57:11.940Z,7.82
2023-05-01T04:58:11.929Z,7.88
2023-05-01T04:59:11.920Z,8.09
2023-05-01T05:00:11.940Z,8.13
2023-05-01T05:01:12.077Z,8.07
2023-05-01T05:02:11.920Z,8.24
2023-05-01T05:03:11.987Z,8.28
2023-05-01T05:04:11.993Z,8.14
2023-05-01T05:05:11.895Z,8.12
2023-05-01T05:06:11.912Z,8.03
2023-05-01T05:07:11.898Z,8.27
2023-05-01T05:08:11.879Z,8.27
2023-05-01T05:09:11.915Z,8.27
2023-05-01T05:10:11.893Z,8.43
2023-05-01T05:11:11.866Z,8.39
2023-05-01T05:12:11.972Z,8.50
2023-05-01T05:13:13.237Z,8.52
2023-05-01T05:14:12.924Z,8.65
2023-05-01T05:15:11.879Z,8.64
2023-05-01T05:16:11.925Z,8.75
2023-05-01T05:17:12.838Z,8.75
2023-05-01T05:18:11.871Z,8.89
2023-05-01T05:19:11.892Z,8.52
2023-05-01T05:20:11.841Z,8.43
2023-05-01T05:21:11.848Z,8.50
2023-05-01T05:22:11.839Z,8.42
2023-05-01T05:23:11.805Z,8.55
2023-05-01T05:24:11.853Z,8.43
2023-05-01T05:25:11.832Z,8.39
2023-05-01T05:26:11.840Z,8.22
2023-05-01T05:27:11.780Z,8.04
2023-05-01T05:28:11.833Z,8.18
2023-05-01T05:29:12.929Z,8.13
2023-05-01T05:30:11.820Z,8.18
2023-05-01T05:31:11.794Z,8.21
2023-05-01T05:32:11.806Z,8.28
2023-05-01T05:33:11.836Z,8.31
2023-05-01T05:34:11.758Z,8.49
2023-05-01T05:35:11.796Z,8.22
2023-05-01T05:36:11.789Z,8.20
2023-05-01T05:37:11.825Z,8.14
2023-05-01T05:38:11.749Z,7.92
2023-05-01T05:39:11.784Z,8.10
2023-05-01T05:40:11.725Z,8.28
2023-05-01T05:41:11.775Z,8.47
2023-05-01T05:42:11.722Z,8.42
2023-05-01T05:43:11.745Z,8.32
2023-05-01T05:44:11.715Z,8.45
2023-05-01T05:45:11.715Z,8.61
2023-05-01T05:46:11.839Z,8.73
2023-05-01T05:47:11.710Z,8.86
2023-05-01T05:48:11.732Z,9.04
2023-05-01T05:49:11.702Z,9.20
2023-05-01T05:50:11.684Z,9.27
2023-05-01T05:51:11.711Z,9.24
2023-05-01T05:52:11.746Z,9.48
2023-05-01T05:53:11.859Z,9.63
2023-05-01T05:54:11.721Z,9.73
2023-05-01T05:55:11.659Z,9.74
2023-05-01T05:56:11.678Z,9.80
2023-05-01T05:57:11.662Z,9.89
2023-05-01T05:58:15.361Z,10.07
2023-05-01T05:59:11.680Z,9.77
2023-05-01T06:00:11.650Z,9.68
2023-05-01T06:01:11.702Z,9.44
2023-05-01T06:02:11.744Z,9.37
2023-05-01T06:03:11.666Z,9.44
2023-05-01T06:04:11.689Z,9.41
2023-05-01T06:05:11.652Z,9.31
2023-05-01T06:06:11.706Z,9.27
2023-05-01T06:07:11.661Z,9.23
2023-05-01T06:08:11.693Z,9.37
2023-05-01T06:09:11.607Z,9.32
2023-05-01T06:10:11.607Z,9.23
2023-05-01T06:11:11.643Z,9.32
2023-05-01T06:12:11.598Z,9.42
2023-05-01T06:13:14.204Z,9.73
2023-05-01T06:14:11.553Z,9.71
2023-05-01T06:15:11.601Z,9.95
2023-05-01T06:16:11.612Z,10.25
2023-05-01T06:17:11.577Z,10.36
2023-05-01T06:18:11.653Z,10.62
2023-05-01T06:19:11.555Z,10.68
2023-05-01T06:20:11.533Z,10.90
2023-05-01T06:21:11.570Z,10.88
2023-05-01T06:22:11.537Z,11.03
2023-05-01T06:23:11.566Z,10.95
2023-05-01T06:24:11.530Z,10.99
2023-05-01T06:25:11.530Z,11.03
2023-05-01T06:26:11.541Z,11.19
2023-05-01T06:27:12.511Z,11.24
2023-05-01T06:28:11.586Z,11.27
2023-05-01T06:29:11.486Z,11.26
2023-05-01T06:30:11.493Z,11.30
2023-05-01T06:31:11.504Z,11.31
2023-05-01T06:32:11.472Z,11.41
2023-05-01T06:33:11.564Z,11.49
2023-05-01T06:34:11.470Z,11.49
2023-05-01T06:35:11.498Z,11.57
2023-05-01T06:36:11.474Z,11.45
2023-05-01T06:37:11.469Z,11.60
2023-05-01T06:38:11.439Z,11.60
2023-05-01T06:39:11.459Z,11.75
2023-05-01T06:40:11.420Z,11.67
2023-05-01T06:41:11.460Z,11.45
2023-05-01T06:42:11.399Z,11.59
2023-05-01T06:43:11.412Z,11.70
2023-05-01T06:44:12.399Z,11.69
2023-05-01T06:45:11.450Z,11.85
2023-05-01T06:46:11.466Z,12.03
2023-05-01T06:47:11.573Z,12.13
2023-05-01T06:48:11.461Z,12.19
2023-05-01T06:49:11.377Z,12.33
2023-05-01T06:50:11.370Z,12.38
2023-05-01T06:51:11.390Z,12.44
2023-05-01T06:52:11.332Z,12.23
2023-05-01T06:53:11.335Z,11.69
2023-05-01T06:54:11.338Z,11.53
2023-05-01T06:55:11.422Z,11.31
2023-05-01T06:56:11.322Z,11.13
2023-05-01T06:57:11.296Z,11.31
2023-05-01T06:58:22.551Z,11.36
2023-05-01T06:59:13.287Z,11.59
2023-05-01T07:00:11.314Z,11.60
2023-05-01T07:01:11.395Z,11.70
2023-05-01T07:02:11.460Z,11.79
2023-05-01T07:03:11.342Z,11.87
2023-05-01T07:04:11.323Z,12.03
2023-05-01T07:05:11.284Z,12.13
2023-05-01T07:06:11.339Z,12.21
2023-05-01T07:07:11.313Z,12.38
2023-05-01T07:08:11.238Z,12.52
2023-05-01T07:09:11.244Z,12.63
2023-05-01T07:10:11.239Z,12.69
2023-05-01T07:11:11.231Z,12.70
2023-05-01T07:12:11.363Z,12.77
2023-05-01T07:13:11.196Z,12.87
2023-05-01T07:14:11.196Z,12.95
2023-05-01T07:15:11.264Z,13.09
2023-05-01T07:16:11.266Z,12.87
2023-05-01T07:17:11.184Z,12.66
2023-05-01T07:18:11.450Z,12.61
2023-05-01T07:19:11.256Z,12.58
2023-05-01T07:20:11.248Z,11.98
2023-05-01T07:21:11.155Z,12.01
2023-05-01T07:22:11.117Z,11.97
2023-05-01T07:23:11.138Z,12.01
2023-05-01T07:24:11.122Z,12.01
2023-05-01T07:25:11.136Z,12.07
2023-05-01T07:26:11.104Z,11.77
2023-05-01T07:27:12.241Z,11.57
2023-05-01T07:28:11.130Z,11.59
2023-05-01T07:29:11.063Z,11.69
2023-05-01T07:30:11.063Z,11.77
2023-05-01T07:31:11.055Z,11.75
2023-05-01T07:32:11.214Z,11.75
2023-05-01T07:33:11.075Z,11.70
2023-05-01T07:34:11.044Z,11.85
2023-05-01T07:35:11.077Z,11.97
2023-05-01T07:36:11.029Z,12.08
2023-05-01T07:37:11.003Z,12.13
2023-05-01T07:38:11.049Z,12.04
2023-05-01T07:39:11.032Z,12.11
2023-05-01T07:40:11.004Z,12.13
2023-05-01T07:41:11.027Z,12.41
2023-05-01T07:42:10.992Z,12.51
2023-05-01T07:43:10.961Z,12.59
2023-05-01T07:44:10.999Z,12.62
2023-05-01T07:45:10.978Z,12.58
2023-05-01T07:46:11.011Z,12.73
2023-05-01T07:47:10.998Z,12.80
2023-05-01T07:48:11.261Z,12.76
2023-05-01T07:49:10.977Z,12.74
2023-05-01T07:50:11.012Z,12.92
2023-05-01T07:51:10.930Z,12.94
2023-05-01T07:52:10.905Z,13.10
2023-05-01T07:53:10.893Z,13.09
2023-05-01T07:54:10.886Z,13.27
2023-05-01T07:55:10.932Z,13.39
2023-05-01T07:56:10.925Z,13.54
2023-05-01T07:57:10.905Z,13.59
2023-05-01T07:58:10.873Z,13.69
2023-05-01T07:59:10.885Z,13.84
2023-05-01T08:00:10.869Z,13.93
2023-05-01T08:01:10.866Z,13.87
2023-05-01T08:02:10.897Z,14.09
2023-05-01T08:03:10.930Z,14.30
2023-05-01T08:04:11.015Z,14.39
2023-05-01T08:05:10.873Z,14.60
2023-05-01T08:06:10.872Z,14.66
2023-05-01T08:07:10.802Z,14.79
2023-05-01T08:08:10.804Z,14.97
2023-05-01T08:09:10.781Z,15.12
2023-05-01T08:10:10.851Z,15.19
2023-05-01T08:11:10.785Z,15.19
2023-05-01T08:12:10.781Z,15.30
2023-05-01T08:13:10.781Z,15.43
2023-05-01T08:14:10.742Z,15.33
2023-05-01T08:15:10.754Z,15.40
2023-05-01T08:16:10.829Z,15.34
2023-05-01T08:17:10.768Z,15.31
2023-05-01T08:18:10.765Z,15.44
2023-05-01T08:19:10.746Z,15.31
2023-05-01T08:20:10.775Z,15.30
2023-05-01T08:21:10.712Z,15.11
2023-05-01T08:22:10.718Z,15.11
2023-05-01T08:23:10.673Z,15.05
2023-05-01T08:24:10.662Z,15.30
2023-05-01T08:25:10.656Z,15.33
2023-05-01T08:26:10.636Z,15.28
2023-05-01T08:27:10.693Z,15.46
2023-05-01T08:28:10.639Z,15.30
2023-05-01T08:29:10.668Z,15.20
2023-05-01T08:30:10.646Z,15.03
2023-05-01T08:31:10.683Z,14.90
2023-05-01T08:32:10.615Z,14.91
2023-05-01T08:33:10.803Z,14.74
2023-05-01T08:34:10.750Z,14.52
2023-05-01T08:35:10.585Z,14.66
2023-05-01T08:36:10.613Z,14.52
2023-05-01T08:37:10.595Z,14.60
2023-05-01T08:38:10.582Z,14.61
2023-05-01T08:39:10.607Z,14.44
2023-05-01T08:40:10.552Z,14.61
2023-05-01T08:41:10.530Z,14.69
2023-05-01T08:42:10.522Z,14.83
2023-05-01T08:43:10.543Z,15.11
2023-05-01T08:44:10.562Z,14.72
2023-05-01T08:45:10.507Z,14.64
2023-05-01T08:46:10.506Z,14.91
2023-05-01T08:47:10.591Z,15.20
2023-05-01T08:48:10.625Z,15.78
2023-05-01T08:49:10.497Z,16.29
2023-05-01T08:50:10.495Z,16.63
2023-05-01T08:51:10.497Z,16.40
2023-05-01T08:52:10.471Z,15.40
2023-05-01T08:53:10.483Z,15.44
2023-05-01T08:54:10.417Z,15.51
2023-05-01T08:55:10.462Z,15.86
2023-05-01T08:56:10.477Z,16.22
2023-05-01T08:57:10.660Z,15.98
2023-05-01T08:58:11.419Z,15.20
2023-05-01T08:59:10.434Z,14.91
2023-05-01T09:00:10.422Z,14.94
2023-05-01T09:01:10.435Z,15.13
2023-05-01T09:02:10.634Z,15.44
2023-05-01T09:03:10.442Z,15.43
2023-05-01T09:04:10.496Z,15.38
2023-05-01T09:05:10.344Z,15.60
2023-05-01T09:06:10.457Z,15.49
2023-05-01T09:07:10.433Z,15.46
2023-05-01T09:08:10.318Z,15.53
2023-05-01T09:09:10.403Z,15.62
2023-05-01T09:10:10.314Z,15.74
2023-05-01T09:11:10.330Z,15.22
2023-05-01T09:12:10.326Z,15.28
2023-05-01T09:13:10.292Z,15.41
2023-05-01T09:14:10.294Z,15.67
2023-05-01T09:15:10.327Z,15.70
2023-05-01T09:16:10.283Z,15.46
2023-05-01T09:17:10.299Z,15.20
2023-05-01T09:18:10.377Z,15.37
2023-05-01T09:19:10.303Z,15.01
2023-05-01T09:20:10.240Z,15.13
2023-05-01T09:21:10.282Z,15.18
2023-05-01T09:22:10.225Z,15.34
2023-05-01T09:23:10.263Z,15.25
2023-05-01T09:24:10.214Z,15.07
2023-05-01T09:25:10.273Z,15.18
2023-05-01T09:26:10.192Z,15.19
2023-05-01T09:27:10.185Z,15.09
2023-05-01T09:28:10.209Z,15.04
2023-05-01T09:29:10.159Z,15.22
2023-05-01T09:30:10.231Z,15.33
2023-05-01T09:31:10.185Z,15.18
2023-05-01T09:32:10.191Z,15.34
2023-05-01T09:33:10.254Z,15.15
2023-05-01T09:34:10.130Z,14.91
2023-05-01T09:35:10.150Z,14.75
2023-05-01T09:36:10.136Z,14.72
2023-05-01T09:37:10.132Z,14.85
2023-05-01T09:38:10.102Z,14.80
2023-05-01T09:39:10.160Z,14.85
2023-05-01T09:40:10.097Z,15.13
2023-05-01T09:41:10.077Z,15.09
2023-05-01T09:42:11.121Z,15.19
2023-05-01T09:43:11.781Z,15.00
2023-05-01T09:44:11.080Z,15.18
2023-05-01T09:45:10.081Z,15.34
2023-05-01T09:46:10.110Z,15.49
2023-05-01T09:47:10.055Z,15.66
2023-05-01T09:48:10.104Z,15.48
2023-05-01T09:49:10.052Z,15.60
2023-05-01T09:50:10.002Z,15.58
2023-05-01T09:51:10.042Z,16.03
2023-05-01T09:52:10.002Z,15.89
2023-05-01T09:53:10.016Z,16.08
2023-05-01T09:54:10.005Z,16.27
2023-05-01T09:55:10.028Z,16.62
2023-05-01T09:56:09.992Z,16.75
2023-05-01T09:57:10.011Z,16.66
2023-05-01T09:58:09.964Z,16.84
2023-05-01T09:59:09.966Z,16.72
2023-05-01T10:00:10.013Z,16.29
2023-05-01T10:01:09.983Z,16.11
2023-05-01T10:02:10.041Z,15.88
2023-05-01T10:03:09.999Z,16.06
2023-05-01T10:04:10.089Z,15.99
2023-05-01T10:05:09.921Z,15.99
2023-05-01T10:06:09.984Z,16.11
2023-05-01T10:07:09.925Z,15.98
2023-05-01T10:08:10.035Z,16.36
2023-05-01T10:09:09.885Z,16.17
2023-05-01T10:10:09.896Z,16.10
2023-05-01T10:11:09.894Z,15.93
2023-05-01T10:12:10.865Z,16.08
2023-05-01T10:13:09.904Z,16.16
2023-05-01T10:14:09.868Z,16.47
2023-05-01T10:15:24.001Z,16.75
2023-05-01T10:16:11.835Z,16.95
2023-05-01T10:17:09.889Z,16.96
2023-05-01T10:18:09.940Z,17.07
2023-05-01T10:19:09.819Z,17.35
2023-05-01T10:20:09.838Z,17.58
2023-05-01T10:21:09.815Z,17.80
2023-05-01T10:22:09.883Z,17.84
2023-05-01T10:23:09.793Z,18.11
2023-05-01T10:24:09.832Z,18.36
2023-05-01T10:25:09.777Z,18.36
2023-05-01T10:26:09.765Z,18.21
2023-05-01T10:27:09.770Z,18.53
2023-05-01T10:28:09.817Z,18.71
2023-05-01T10:29:09.752Z,18.87
2023-05-01T10:30:09.748Z,18.86
2023-05-01T10:31:09.823Z,18.93
2023-05-01T10:32:09.770Z,18.99
2023-05-01T10:33:09.782Z,18.84
2023-05-01T10:34:09.750Z,18.71
2023-05-01T10:35:09.703Z,18.65
2023-05-01T10:36:09.708Z,18.71
2023-05-01T10:37:09.697Z,18.56
2023-05-01T10:38:09.751Z,18.32
2023-05-01T10:39:09.805Z,18.35
2023-05-01T10:40:09.695Z,18.34
2023-05-01T10:41:09.700Z,18.17
2023-05-01T10:42:09.658Z,18.11
2023-05-01T10:43:09.682Z,18.19
2023-05-01T10:44:09.677Z,18.29
2023-05-01T10:45:09.660Z,18.42
2023-05-01T10:46:09.713Z,18.44
2023-05-01T10:47:09.678Z,18.60
2023-05-01T10:48:09.733Z,18.72
2023-05-01T10:49:09.659Z,18.76
2023-05-01T10:50:09.686Z,18.68
2023-05-01T10:51:09.655Z,18.44
2023-05-01T10:52:09.600Z,18.19
2023-05-01T10:53:09.607Z,18.46
2023-05-01T10:54:09.615Z,18.56
2023-05-01T10:55:09.595Z,18.39
2023-05-01T10:56:09.618Z,18.60
2023-05-01T10:57:09.579Z,18.57
2023-05-01T10:58:09.582Z,18.62
2023-05-01T10:59:09.598Z,18.69
2023-05-01T11:00:09.564Z,18.04
2023-05-01T11:01:09.582Z,17.79
2023-05-01T11:02:09.679Z,17.76
2023-05-01T11:03:09.591Z,17.94
2023-05-01T11:04:09.565Z,18.16
2023-05-01T11:05:09.558Z,18.49
2023-05-01T11:06:09.615Z,18.57
2023-05-01T11:07:09.657Z,18.29
2023-05-01T11:08:09.506Z,17.96
2023-05-01T11:09:09.519Z,17.74
2023-05-01T11:10:09.514Z,17.70
2023-05-01T11:11:09.490Z,17.66
2023-05-01T11:12:09.507Z,17.76
2023-05-01T11:13:09.488Z,17.60
2023-05-01T11:14:09.483Z,17.70
2023-05-01T11:15:09.534Z,17.62
2023-05-01T11:16:09.513Z,17.79
2023-05-01T11:17:10.458Z,17.80
2023-05-01T11:18:09.489Z,17.62
2023-05-01T11:19:09.482Z,17.45
2023-05-01T11:20:09.450Z,17.51
2023-05-01T11:21:09.445Z,17.73
2023-05-01T11:22:09.416Z,17.87
2023-05-01T11:23:09.449Z,17.77
2023-05-01T11:24:09.432Z,17.95
2023-05-01T11:25:09.383Z,17.98
2023-05-01T11:26:09.392Z,17.99
2023-05-01T11:27:09.423Z,18.02
2023-05-01T11:28:09.433Z,18.23
2023-05-01T11:29:09.404Z,17.87
2023-05-01T11:30:09.391Z,17.80
2023-05-01T11:31:09.422Z,17.96
2023-05-01T11:32:09.382Z,18.21
2023-05-01T11:33:10.936Z,18.14
2023-05-01T11:34:10.397Z,18.31
2023-05-01T11:35:09.365Z,18.39
2023-05-01T11:36:09.377Z,18.62
2023-05-01T11:37:10.433Z,18.74
2023-05-01T11:38:09.329Z,18.97
2023-05-01T11:39:09.355Z,18.97
2023-05-01T11:40:09.373Z,18.84
2023-05-01T11:41:09.334Z,18.83
2023-05-01T11:42:09.436Z,18.94
2023-05-01T11:43:09.331Z,18.96
2023-05-01T11:44:09.354Z,18.76
2023-05-01T11:45:09.316Z,18.84
2023-05-01T11:46:09.451Z,18.78
2023-05-01T11:47:09.299Z,18.69
2023-05-01T11:48:09.361Z,18.74
2023-05-01T11:49:10.006Z,18.82
2023-05-01T11:50:11.825Z,19.13
2023-05-01T11:51:12.261Z,19.39
2023-05-01T11:52:10.859Z,19.58
2023-05-01T11:53:09.273Z,19.78
2023-05-01T11:54:09.308Z,20.01
2023-05-01T11:55:09.525Z,20.19
2023-05-01T11:56:19.499Z,20.35
2023-05-01T11:57:18.837Z,19.95
2023-05-01T11:58:10.411Z,19.12
2023-05-01T11:59:09.217Z,18.62
2023-05-01T12:00:09.270Z,18.47
2023-05-01T12:01:09.263Z,18.47
2023-05-01T12:02:09.276Z,18.59
2023-05-01T12:03:09.376Z,18.93
2023-05-01T12:04:09.262Z,19.42
2023-05-01T12:05:09.201Z,19.70
2023-05-01T12:06:09.207Z,19.67
2023-05-01T12:07:09.198Z,19.55
2023-05-01T12:08:09.186Z,19.75
2023-05-01T12:09:09.147Z,20.17
2023-05-01T12:10:09.166Z,20.46
2023-05-01T12:11:09.175Z,20.79
2023-05-01T12:12:09.130Z,20.85
2023-05-01T12:13:09.131Z,21.06
2023-05-01T12:14:09.144Z,21.09
2023-05-01T12:15:09.098Z,21.22
2023-05-01T12:16:10.163Z,21.00
2023-05-01T12:17:09.183Z,20.71
2023-05-01T12:18:09.199Z,20.31
2023-05-01T12:19:09.088Z,20.23
2023-05-01T12:20:09.144Z,20.60
2023-05-01T12:21:09.116Z,20.27
2023-05-01T12:22:09.082Z,19.55
2023-05-01T12:23:09.052Z,18.93
2023-05-01T12:24:09.095Z,18.87
2023-05-01T12:25:09.050Z,19.15
2023-05-01T12:26:09.072Z,19.15
2023-05-01T12:27:09.050Z,19.28
2023-05-01T12:28:09.066Z,19.61
2023-05-01T12:29:09.061Z,19.79
2023-05-01T12:30:09.096Z,20.01
2023-05-01T12:31:09.089Z,20.04
2023-05-01T12:32:09.195Z,19.97
2023-05-01T12:33:09.087Z,20.07
2023-05-01T12:34:09.017Z,19.94
2023-05-01T12:35:09.065Z,19.30
2023-05-01T12:36:09.119Z,19.32
2023-05-01T12:37:09.013Z,19.50
2023-05-01T12:38:08.990Z,19.72
2023-05-01T12:39:09.002Z,19.58
2023-05-01T12:40:08.960Z,19.61
2023-05-01T12:41:08.943Z,19.86
2023-05-01T12:42:08.935Z,19.82
2023-05-01T12:43:08.942Z,19.50
2023-05-01T12:44:08.975Z,19.49
2023-05-01T12:45:08.918Z,19.90
2023-05-01T12:46:08.974Z,20.17
2023-05-01T12:47:08.915Z,20.54
2023-05-01T12:48:08.951Z,20.68
2023-05-01T12:49:08.886Z,20.69
2023-05-01T12:50:08.931Z,20.57
2023-05-01T12:51:08.884Z,20.33
2023-05-01T12:52:08.949Z,20.08
2023-05-01T12:53:08.854Z,19.76
2023-05-01T12:54:09.098Z,19.50
2023-05-01T12:55:08.893Z,19.58
2023-05-01T12:56:08.864Z,19.65
2023-05-01T12:57:08.848Z,19.61
2023-05-01T12:58:08.824Z,19.55
2023-05-01T12:59:08.882Z,19.40
2023-05-01T13:00:08.843Z,19.23
2023-05-01T13:01:08.870Z,19.02
2023-05-01T13:02:08.866Z,19.09
2023-05-01T13:03:08.944Z,19.32
2023-05-01T13:04:08.946Z,19.55